Roxbury, Vermont
Current Conditions -  °F | °C
As of 12:51 PM on Tuesday 21 Oct 2014 (Local Time) from KMPV Reporting Station
Light Rain Light Rain  
Wind Chill: 44°   Ceiling: 2600
Heat Index: 44°   Visibility: 2.5mi
Dew Point: 43°   Wind: 3mph
Humidity: 96%   Direction: 20°NNE
Pressure: 30.03"   Gusts: NA
Location:  44.09°N, 72.73°W
Report Text: KMPV 211651Z AUTO 02003KT 2 1/2SM -RA BR SCT003 BKN026 OVC044 07/06 A3003 RMK AO2 SLP176 P0004 T00670061
Loading
Personal Weather Stations






























Interactive Weather Map
Tropical Storm Tracking
New forecast layout! Learn more

10-Day Weather Forecast

Advertisements
Track Severe Weather on mobile